Time;durP1;ratioP1;P1;durP2;ratioP2;P2;SDS_P1;SDS_P2;PMS_P1;PMS_P2;Temp;Humidity;BMP_temperature;BMP_pressure;BME280_temperature;BME280_humidity;BME280_pressure;Samples;Min_cycle;Max_cycle;Signal;HPM_P1;HPM_P2
2022/07/15 00:01:20;;;;;;;5.60;3.40;;;;;;;18.14;63.98;100799.27;111329;1230;59998;-75
2022/07/15 00:03:47;;;;;;;4.70;3.00;;;;;;;18.13;64.12;100797.46;111347;1230;73737;-74
2022/07/15 00:06:15;;;;;;;7.20;3.30;;;;;;;18.10;64.16;100796.02;111336;1230;57721;-74
2022/07/15 00:08:42;;;;;;;7.10;3.30;;;;;;;18.06;64.44;100795.55;111335;1229;57821;-74
2022/07/15 00:11:10;;;;;;;3.90;2.90;;;;;;;18.04;64.08;100790.78;111352;1230;73891;-75
2022/07/15 00:13:38;;;;;;;4.40;3.30;;;;;;;18.05;63.87;100787.95;111220;1230;61195;-75
2022/07/15 00:16:05;;;;;;;9.40;3.40;;;;;;;18.04;63.99;100792.95;111352;1230;70506;-74
2022/07/15 00:18:35;;;;;;;13.40;4.90;;;;;;;18.05;64.01;100794.06;111352;1230;73675;-74
2022/07/15 00:21:05;;;;;;;20.90;4.20;;;;;;;18.06;63.59;100790.30;111348;1230;60826;-75
2022/07/15 00:23:32;;;;;;;13.40;3.50;;;;;;;18.02;63.80;100795.23;111255;1230;57856;-74
2022/07/15 00:26:00;;;;;;;14.90;3.60;;;;;;;18.00;63.84;100796.98;111250;1231;71743;-73
2022/07/15 00:28:28;;;;;;;6.50;3.50;;;;;;;17.98;63.97;100797.23;111351;1230;60977;-74
2022/07/15 00:30:55;;;;;;;4.90;3.30;;;;;;;17.98;62.83;100794.23;111310;1230;59239;-75
2022/07/15 00:33:23;;;;;;;4.60;2.90;;;;;;;17.91;63.14;100796.16;111315;1230;73871;-74
2022/07/15 00:35:51;;;;;;;9.00;3.30;;;;;;;17.82;65.06;100793.39;111406;1230;57953;-73
2022/07/15 00:38:19;;;;;;;10.90;3.20;;;;;;;17.75;65.60;100793.58;111459;1230;61373;-74
2022/07/15 00:40:49;;;;;;;11.70;3.90;;;;;;;17.74;65.58;100792.09;111320;1230;71273;-73
2022/07/15 00:43:18;;;;;;;8.50;3.50;;;;;;;17.76;65.13;100791.58;111158;1231;70756;-74
2022/07/15 00:45:47;;;;;;;9.40;3.60;;;;;;;17.76;65.30;100788.58;111380;1230;71052;-74
2022/07/15 00:48:14;;;;;;;7.10;3.40;;;;;;;17.76;64.74;100788.94;111385;1230;63750;-74
2022/07/15 00:50:47;;;;;;;7.00;3.50;;;;;;;17.79;64.43;100784.26;111361;1230;62968;-74
2022/07/15 00:53:25;;;;;;;6.40;3.40;;;;;;;17.79;65.12;100781.19;111546;1229;61632;-74
2022/07/15 00:55:56;;;;;;;9.60;4.10;;;;;;;17.80;65.10;100775.14;111548;1230;74085;-74
2022/07/15 00:58:29;;;;;;;6.50;3.70;;;;;;;17.79;65.06;100770.45;111256;1232;72345;-75
2022/07/15 01:00:56;;;;;;;;;;;;;;;17.75;65.43;100768.05;111118;1230;71319;-75
2022/07/15 01:03:26;;;;;;;4.90;3.30;;;;;;;17.73;65.46;100767.85;111316;1230;70809;-74
2022/07/15 01:05:55;;;;;;;5.90;3.30;;;;;;;17.69;65.77;100765.80;111130;1230;62036;-74
2022/07/15 01:08:22;;;;;;;6.10;3.10;;;;;;;17.70;65.61;100764.07;111145;1230;60202;-74
2022/07/15 01:10:54;;;;;;;7.50;3.80;;;;;;;17.73;65.81;100763.61;111237;1231;73595;-76
2022/07/15 01:13:22;;;;;;;6.90;3.70;;;;;;;17.75;65.94;100759.63;111092;1230;72269;-73
2022/07/15 01:15:50;;;;;;;6.00;3.30;;;;;;;17.74;65.85;100757.18;111238;1231;69755;-74
2022/07/15 01:18:21;;;;;;;5.90;3.70;;;;;;;17.74;65.73;100753.72;111193;1230;73507;-75
2022/07/15 01:20:50;;;;;;;6.80;3.70;;;;;;;17.72;65.96;100751.98;111197;1231;59560;-75
2022/07/15 01:23:18;;;;;;;8.50;3.90;;;;;;;17.68;65.90;100750.58;111132;1232;58545;-74
2022/07/15 01:25:58;;;;;;;7.80;3.50;;;;;;;17.64;66.10;100744.81;111194;1231;72767;-75
2022/07/15 01:28:26;;;;;;;11.00;3.70;;;;;;;17.61;66.27;100746.57;111182;1230;72841;-74
2022/07/15 01:30:57;;;;;;;13.20;3.50;;;;;;;17.60;66.32;100744.68;111190;1231;70934;-75
2022/07/15 01:33:33;;;;;;;12.20;3.80;;;;;;;17.59;66.43;100741.83;111188;1231;74284;-76
2022/07/15 01:36:05;;;;;;;13.60;3.70;;;;;;;17.56;66.70;100741.95;111261;1231;59977;-73
2022/07/15 01:38:35;;;;;;;15.50;4.00;;;;;;;17.53;67.02;100740.88;111206;1233;61286;-74
2022/07/15 01:41:15;;;;;;;9.20;4.20;;;;;;;17.50;67.08;100738.84;111225;1231;74437;-73
2022/07/15 01:43:43;;;;;;;8.60;3.50;;;;;;;17.48;67.22;100738.73;111018;1231;72860;-74
2022/07/15 01:46:13;;;;;;;10.50;3.50;;;;;;;17.46;66.87;100738.15;111597;1230;68332;-76
2022/07/15 01:52:24;;;;;;;6.40;3.50;;;;;;;17.49;67.10;100737.39;111215;1230;62162;-74
2022/07/15 01:54:54;;;;;;;8.50;3.60;;;;;;;17.49;67.03;100736.63;111308;1231;61277;-75
2022/07/15 01:57:22;;;;;;;6.90;4.10;;;;;;;17.48;67.20;100730.23;111281;1231;74292;-75
2022/07/15 01:59:56;;;;;;;10.90;4.00;;;;;;;17.47;67.23;100722.80;111264;1231;73898;-74
2022/07/15 02:02:43;;;;;;;12.30;4.10;;;;;;;17.46;66.26;100722.16;111343;1230;71342;-74
2022/07/15 02:05:13;;;;;;;6.20;4.00;;;;;;;17.49;66.50;100720.32;111380;1231;73592;-74
2022/07/15 02:07:40;;;;;;;6.50;3.90;;;;;;;17.51;65.77;100716.07;111424;1230;63377;-73
2022/07/15 02:10:14;;;;;;;7.30;4.00;;;;;;;17.57;65.60;100717.52;111393;1231;60393;-74
2022/07/15 02:12:47;;;;;;;9.20;4.00;;;;;;;17.64;65.14;100712.09;111382;1231;73667;-74
2022/07/15 02:15:18;;;;;;;6.20;4.00;;;;;;;17.71;64.77;100717.13;111246;1231;74010;-74
2022/07/15 02:17:51;;;;;;;7.50;4.00;;;;;;;17.81;64.47;100718.68;111297;1231;61276;-74
2022/07/15 02:20:27;;;;;;;5.50;4.00;;;;;;;17.89;64.11;100719.40;111185;1230;74355;-73
2022/07/15 02:22:57;;;;;;;8.20;4.10;;;;;;;17.95;63.81;100716.87;111141;1230;61654;-75
2022/07/15 02:25:33;;;;;;;8.30;4.30;;;;;;;17.99;63.86;100716.39;111197;1231;61015;-74
2022/07/15 02:28:05;;;;;;;6.50;4.30;;;;;;;18.03;63.78;100715.84;111216;1232;71487;-75
2022/07/15 02:30:38;;;;;;;9.70;4.60;;;;;;;18.06;63.55;100712.89;111248;1231;71526;-74
2022/07/15 02:33:07;;;;;;;8.10;4.30;;;;;;;18.08;63.32;100717.27;111204;1231;60565;-74
2022/07/15 02:35:38;;;;;;;8.50;4.90;;;;;;;18.10;62.93;100719.20;111202;1230;73947;-75
2022/07/15 02:38:07;;;;;;;8.20;4.90;;;;;;;18.14;62.75;100720.45;111165;1231;59437;-75
2022/07/15 02:40:37;;;;;;;12.00;4.80;;;;;;;18.19;62.37;100720.98;111396;1231;59755;-75
2022/07/15 02:43:11;;;;;;;10.20;4.40;;;;;;;18.23;62.53;100717.08;111327;1231;74414;-74
2022/07/15 02:45:46;;;;;;;8.20;4.60;;;;;;;18.24;63.19;100715.55;111117;1231;70576;-76
2022/07/15 02:48:22;;;;;;;8.50;4.00;;;;;;;18.20;63.26;100712.30;111103;1231;70663;-75
2022/07/15 02:50:50;;;;;;;9.40;4.20;;;;;;;18.15;63.07;100713.32;111125;1231;74535;-75
2022/07/15 02:53:25;;;;;;;10.40;4.50;;;;;;;18.12;63.52;100716.54;111347;1231;61690;-74
2022/07/15 02:55:53;;;;;;;10.60;4.10;;;;;;;18.05;63.85;100717.07;111351;1231;60288;-75
2022/07/15 02:58:22;;;;;;;18.40;4.40;;;;;;;18.00;63.86;100723.70;111308;1231;73640;-75
2022/07/15 03:00:50;;;;;;;9.40;4.20;;;;;;;18.00;63.33;100725.67;111363;1231;64120;-76
2022/07/15 03:03:20;;;;;;;6.70;3.50;;;;;;;17.97;63.14;100727.50;111504;1230;60000;-75
2022/07/15 03:05:48;;;;;;;16.50;4.30;;;;;;;17.96;62.57;100730.65;111404;1231;63284;-74
2022/07/15 03:08:17;;;;;;;8.20;3.90;;;;;;;17.87;62.83;100731.10;111203;1231;59645;-74
2022/07/15 03:10:45;;;;;;;7.40;3.30;;;;;;;17.77;64.22;100729.30;111462;1231;59500;-74
2022/07/15 03:13:18;;;;;;;18.30;4.60;;;;;;;17.76;64.93;100725.90;111291;1231;71569;-74
2022/07/15 03:15:45;;;;;;;8.90;3.80;;;;;;;17.77;64.48;100725.26;111457;1230;72247;-77
2022/07/15 03:18:13;;;;;;;8.60;5.20;;;;;;;17.95;63.47;100720.86;111433;1231;68618;-75
2022/07/15 03:20:46;;;;;;;8.70;4.60;;;;;;;18.11;63.72;100724.04;111364;1231;74014;-76
2022/07/15 03:23:18;;;;;;;8.30;5.50;;;;;;;18.23;63.35;100719.09;111483;1231;57217;-74
2022/07/15 03:25:51;;;;;;;10.90;5.70;;;;;;;18.24;63.18;100723.32;111510;1230;60530;-76
2022/07/15 03:28:20;;;;;;;19.50;5.70;;;;;;;18.27;62.73;100723.01;111167;1231;72264;-75
2022/07/15 03:30:48;;;;;;;10.30;4.80;;;;;;;18.29;63.57;100720.56;111413;1230;71404;-73
2022/07/15 03:33:22;;;;;;;11.10;5.10;;;;;;;18.32;63.47;100718.46;111358;1231;72020;-75
2022/07/15 03:35:51;;;;;;;10.30;4.80;;;;;;;18.39;62.81;100714.17;111466;1230;71677;-74
2022/07/15 03:38:23;;;;;;;12.10;5.40;;;;;;;18.46;62.96;100708.31;111309;1231;62415;-75
2022/07/15 03:40:57;;;;;;;13.40;5.10;;;;;;;18.53;62.89;100710.70;111521;1230;61504;-74
2022/07/15 03:43:30;;;;;;;13.20;5.20;;;;;;;18.61;62.87;100707.48;111368;1231;63170;-75
2022/07/15 03:45:58;;;;;;;11.50;4.90;;;;;;;18.69;62.45;100703.42;111554;1230;60767;-76
2022/07/15 03:48:36;;;;;;;11.60;5.30;;;;;;;18.83;62.16;100703.23;111219;1231;70483;-74
2022/07/15 03:51:04;;;;;;;26.30;5.90;;;;;;;18.91;62.20;100701.45;111415;1231;64041;-75
2022/07/15 03:53:42;;;;;;;36.10;6.30;;;;;;;18.99;62.37;100696.20;111413;1229;57795;-76
2022/07/15 03:56:09;;;;;;;12.80;4.80;;;;;;;19.05;61.76;100697.85;111375;1231;57304;-74
2022/07/15 03:58:37;;;;;;;10.40;4.50;;;;;;;19.08;61.21;100696.66;111422;1231;72814;-76
2022/07/15 04:01:04;;;;;;;16.50;5.80;;;;;;;19.13;61.02;100693.23;111392;1231;61881;-76
2022/07/15 04:03:33;;;;;;;20.10;5.50;;;;;;;19.21;61.21;100686.68;111550;1231;70472;-76
2022/07/15 04:06:00;;;;;;;16.70;5.80;;;;;;;19.31;60.98;100683.16;111325;1232;63305;-75
2022/07/15 04:08:28;;;;;;;15.10;5.40;;;;;;;19.41;61.17;100677.67;111168;1231;61684;-77
2022/07/15 04:10:56;;;;;;;13.30;5.80;;;;;;;19.50;61.31;100676.10;111546;1230;61687;-75
2022/07/15 04:13:24;;;;;;;9.70;5.20;;;;;;;19.59;60.71;100674.73;111318;1231;73398;-76
2022/07/15 04:15:51;;;;;;;15.30;5.90;;;;;;;19.68;61.00;100669.55;111451;1231;61197;-75
2022/07/15 04:18:18;;;;;;;11.50;5.40;;;;;;;19.81;60.60;100672.52;111191;1233;68769;-75
2022/07/15 04:20:48;;;;;;;9.60;5.00;;;;;;;19.97;60.28;100673.73;111138;1234;73514;-75
2022/07/15 04:23:16;;;;;;;9.70;5.30;;;;;;;20.13;59.81;100673.46;111264;1231;60984;-75
2022/07/15 04:25:43;;;;;;;9.80;5.20;;;;;;;20.28;59.35;100672.09;110959;1231;57679;-75
2022/07/15 04:28:13;;;;;;;14.20;5.60;;;;;;;20.46;58.77;100672.73;111084;1231;72354;-75
2022/07/15 04:30:40;;;;;;;13.40;6.00;;;;;;;20.61;58.30;100674.02;111180;1231;64527;-75
2022/07/15 04:33:08;;;;;;;11.20;5.30;;;;;;;20.78;57.38;100672.60;111116;1231;60036;-73
2022/07/15 04:35:38;;;;;;;11.40;5.10;;;;;;;20.92;57.08;100675.54;111232;1231;64063;-73
2022/07/15 04:38:07;;;;;;;10.30;5.00;;;;;;;21.10;56.79;100679.30;111271;1231;60682;-73
2022/07/15 04:40:35;;;;;;;13.10;5.00;;;;;;;21.25;55.86;100684.95;111311;1230;61502;-75
2022/07/15 04:43:08;;;;;;;13.70;5.30;;;;;;;21.39;55.41;100685.71;111332;1231;63833;-75
2022/07/15 04:45:36;;;;;;;12.10;4.50;;;;;;;21.53;55.08;100686.40;111360;1230;73294;-75
2022/07/15 04:50:45;;;;;;;13.00;4.70;;;;;;;21.67;54.18;100685.83;111269;1231;70170;-74
2022/07/15 04:50:52;;;;;;;8.50;4.20;;;;;;;21.81;54.64;100683.45;111068;1231;63525;-76
2022/07/15 04:53:24;;;;;;;10.30;4.70;;;;;;;21.95;52.89;100685.61;111102;1231;60098;-75
2022/07/15 04:55:53;;;;;;;15.30;4.60;;;;;;;22.09;53.25;100682.36;111095;1231;61319;-74
2022/07/15 04:58:20;;;;;;;10.80;4.30;;;;;;;22.22;53.02;100683.27;111309;1231;63342;-74
2022/07/15 05:00:48;;;;;;;11.00;4.00;;;;;;;22.36;52.18;100682.19;111389;1231;72330;-75
2022/07/15 05:03:15;;;;;;;12.00;4.80;;;;;;;22.51;52.19;100682.27;111321;1231;70040;-74
2022/07/15 05:05:43;;;;;;;8.90;4.00;;;;;;;22.65;51.88;100683.06;111365;1231;73937;-75
2022/07/15 05:08:12;;;;;;;13.10;4.50;;;;;;;22.78;51.65;100681.84;111350;1231;57759;-75
2022/07/15 05:10:46;;;;;;;8.50;4.40;;;;;;;22.91;51.53;100681.31;111058;1233;57739;-76
2022/07/15 05:13:14;;;;;;;8.60;4.30;;;;;;;23.07;50.39;100681.78;110943;1234;74586;-75
2022/07/15 05:15:41;;;;;;;7.80;4.30;;;;;;;23.20;50.53;100679.25;111143;1235;62070;-75
2022/07/15 05:18:15;;;;;;;8.50;4.60;;;;;;;23.34;48.05;100676.27;111085;1231;69693;-75
2022/07/15 05:20:43;;;;;;;8.80;4.50;;;;;;;23.47;48.29;100676.31;111428;1230;74279;-74
2022/07/15 05:23:11;;;;;;;11.00;4.30;;;;;;;23.61;48.79;100670.13;111386;1231;61814;-74
2022/07/15 05:25:41;;;;;;;10.20;4.50;;;;;;;23.74;48.06;100664.54;111370;1231;57723;-75
2022/07/15 05:28:08;;;;;;;7.80;4.70;;;;;;;23.88;48.41;100664.29;111413;1229;73690;-74
2022/07/15 05:30:38;;;;;;;9.90;4.70;;;;;;;24.01;48.19;100660.43;111281;1233;61282;-75
2022/07/15 05:33:06;;;;;;;10.80;4.90;;;;;;;24.14;47.67;100660.89;111353;1230;68119;-71
2022/07/15 05:35:33;;;;;;;10.90;6.20;;;;;;;24.21;47.16;100654.58;111453;1230;63607;-71
2022/07/15 05:38:02;;;;;;;15.20;5.50;;;;;;;24.30;46.18;100659.10;111278;1231;57733;-72
2022/07/15 05:40:31;;;;;;;13.00;5.30;;;;;;;24.40;45.42;100656.79;111250;1231;61712;-72
2022/07/15 05:42:59;;;;;;;14.20;4.50;;;;;;;24.50;45.24;100656.40;111342;1231;74119;-72
2022/07/15 05:45:27;;;;;;;13.00;4.90;;;;;;;24.66;45.36;100659.76;111489;1230;72611;-71
2022/07/15 05:48:01;;;;;;;12.70;4.40;;;;;;;24.77;45.27;100659.83;111536;1231;60822;-72
2022/07/15 05:50:30;;;;;;;8.80;4.40;;;;;;;24.92;45.88;100659.52;111316;1231;73948;-72
2022/07/15 05:52:59;;;;;;;10.60;4.80;;;;;;;25.05;45.07;100659.27;111433;1231;57161;-72
2022/07/15 05:55:27;;;;;;;11.80;4.90;;;;;;;25.20;44.81;100653.77;111458;1230;61309;-73
2022/07/15 05:57:55;;;;;;;14.20;4.40;;;;;;;25.33;45.00;100652.88;111445;1231;72185;-73
2022/07/15 06:00:26;;;;;;;9.00;4.30;;;;;;;25.42;44.19;100650.80;111193;1231;61941;-72
2022/07/15 06:02:53;;;;;;;9.80;4.20;;;;;;;25.52;44.27;100652.01;111409;1231;71006;-74
2022/07/15 06:05:23;;;;;;;10.00;4.40;;;;;;;25.58;43.53;100644.58;111386;1230;75312;-73
2022/07/15 06:08:01;;;;;;;10.20;4.10;;;;;;;25.72;43.32;100642.41;111413;1230;57863;-71
2022/07/15 06:10:32;;;;;;;10.40;4.40;;;;;;;25.88;42.92;100640.70;111416;1231;57703;-73
2022/07/15 06:13:00;;;;;;;11.20;4.00;;;;;;;26.04;42.80;100640.48;111436;1231;62346;-73
2022/07/15 06:15:28;;;;;;;8.00;3.80;;;;;;;26.18;42.68;100633.59;111384;1231;72739;-73
2022/07/15 06:17:57;;;;;;;8.70;3.90;;;;;;;26.35;43.53;100634.30;111323;1231;61366;-73
2022/07/15 06:20:26;;;;;;;10.30;3.80;;;;;;;26.51;43.23;100632.94;110985;1233;62465;-74
2022/07/15 06:22:53;;;;;;;8.60;3.70;;;;;;;26.71;42.83;100630.17;110756;1235;57757;-74
2022/07/15 06:25:21;;;;;;;9.10;3.60;;;;;;;26.91;39.93;100627.34;110820;1234;60919;-74
2022/07/15 06:27:49;;;;;;;7.60;4.00;;;;;;;27.12;38.78;100624.11;110873;1235;74173;-73
2022/07/15 06:30:17;;;;;;;8.80;3.90;;;;;;;27.28;38.26;100626.14;111049;1234;71259;-73
2022/07/15 06:32:44;;;;;;;6.90;3.10;;;;;;;27.45;38.75;100627.27;111068;1234;59676;-74
2022/07/15 06:35:12;;;;;;;8.10;3.10;;;;;;;27.61;38.29;100622.64;111053;1234;73907;-74
2022/07/15 06:37:39;;;;;;;8.80;3.40;;;;;;;27.75;36.72;100630.36;111113;1234;57702;-74
2022/07/15 06:40:08;;;;;;;3.00;1.90;;;;;;;27.94;36.58;100631.44;111005;1235;57172;-75
2022/07/15 06:42:37;;;;;;;4.90;2.00;;;;;;;28.23;34.42;100626.83;110839;1234;64664;-74
2022/07/15 06:45:09;;;;;;;5.40;2.30;;;;;;;28.43;34.04;100625.60;110973;1234;62158;-74
2022/07/15 06:47:42;;;;;;;6.20;2.60;;;;;;;28.60;34.45;100630.67;111162;1233;60896;-74
2022/07/15 06:50:10;;;;;;;4.00;2.50;;;;;;;28.74;34.38;100630.39;111129;1234;63159;-78
2022/07/15 06:52:50;;;;;;;4.20;2.30;;;;;;;28.90;33.99;100631.75;111123;1231;61264;-75
2022/07/15 06:55:18;;;;;;;4.90;2.10;;;;;;;29.07;32.95;100629.45;110922;1234;57715;-73
2022/07/15 06:57:45;;;;;;;4.10;1.90;;;;;;;29.18;32.74;100623.04;111576;1230;62910;-73
2022/07/15 07:00:14;;;;;;;3.70;2.10;;;;;;;29.27;32.85;100624.02;111536;1230;72170;-73
2022/07/15 07:02:42;;;;;;;6.20;2.70;;;;;;;29.24;33.37;100625.05;111402;1230;60278;-74
2022/07/15 07:05:16;;;;;;;6.00;2.30;;;;;;;29.15;33.79;100626.73;111491;1230;62498;-73
2022/07/15 07:07:43;;;;;;;4.40;2.60;;;;;;;29.25;33.84;100627.37;111490;1230;57702;-73
2022/07/15 07:10:10;;;;;;;8.50;3.00;;;;;;;29.42;33.55;100631.60;111453;1231;61441;-73
2022/07/15 07:12:38;;;;;;;5.50;2.60;;;;;;;29.55;33.14;100633.85;111357;1231;73450;-72
2022/07/15 07:15:07;;;;;;;6.60;2.40;;;;;;;29.56;32.92;100640.48;111518;1229;63185;-72
2022/07/15 07:17:34;;;;;;;4.40;2.30;;;;;;;29.78;32.19;100637.23;111564;1229;59104;-71
2022/07/15 07:20:02;;;;;;;4.50;1.90;;;;;;;29.96;31.92;100639.45;111275;1231;73985;-75
2022/07/15 07:22:29;;;;;;;8.60;6.30;;;;;;;30.12;31.01;100637.34;111223;1230;57806;-73
2022/07/15 07:24:59;;;;;;;2.90;1.80;;;;;;;30.31;30.92;100631.18;111441;1230;62100;-75
2022/07/15 07:27:26;;;;;;;2.80;1.90;;;;;;;30.56;30.00;100628.52;111356;1230;74029;-72
2022/07/15 07:29:54;;;;;;;5.30;1.90;;;;;;;30.72;29.36;100624.66;111495;1229;71278;-76
2022/07/15 07:32:21;;;;;;;3.60;1.70;;;;;;;30.71;29.12;100625.06;111491;1230;59577;-74
2022/07/15 07:34:48;;;;;;;4.70;2.10;;;;;;;30.68;29.26;100626.66;111460;1230;63661;-75
2022/07/15 07:37:16;;;;;;;4.60;2.00;;;;;;;30.78;29.43;100621.13;111502;1230;61169;-73
2022/07/15 07:39:43;;;;;;;10.70;2.40;;;;;;;30.82;29.01;100614.39;111430;1230;58081;-73
2022/07/15 07:42:11;;;;;;;3.50;1.80;;;;;;;31.03;29.35;100615.77;111575;1229;72817;-74
2022/07/15 07:44:39;;;;;;;4.80;2.00;;;;;;;31.03;28.83;100611.29;111578;1229;70730;-72
2022/07/15 07:47:06;;;;;;;3.00;2.00;;;;;;;31.00;29.09;100602.58;111521;1229;71055;-74
2022/07/15 07:49:41;;;;;;;7.30;2.20;;;;;;;31.15;29.06;100601.27;111549;1228;74240;-74
2022/07/15 07:52:09;;;;;;;4.10;2.10;;;;;;;31.14;28.61;100597.33;111454;1230;61716;-72
2022/07/15 07:54:36;;;;;;;7.80;2.10;;;;;;;31.21;28.30;100597.79;111332;1230;57783;-73
2022/07/15 07:57:03;;;;;;;4.20;1.80;;;;;;;31.45;28.56;100597.67;111519;1229;73512;-73
2022/07/15 07:59:31;;;;;;;5.70;2.00;;;;;;;31.65;27.60;100595.64;111586;1229;72278;-73
2022/07/15 08:01:58;;;;;;;2.60;1.60;;;;;;;31.70;27.14;100598.40;111601;1230;60221;-72
2022/07/15 08:04:26;;;;;;;6.20;1.80;;;;;;;31.68;27.02;100600.76;111550;1230;73053;-79
2022/07/15 08:06:53;;;;;;;6.20;1.90;;;;;;;31.64;27.28;100601.15;111486;1230;57276;-77
2022/07/15 08:09:27;;;;;;;4.10;1.90;;;;;;;31.63;27.23;100598.17;111653;1229;57743;-80
2022/07/15 08:11:54;;;;;;;3.40;1.50;;;;;;;31.71;27.10;100591.45;111429;1230;72471;-75
2022/07/15 10:13:05;;;;;;;4.10;1.70;;;;;;;34.57;21.38;100537.95;105366;1283;601459;-75
2022/07/15 10:15:41;;;;;;;6.70;2.50;;;;;;;34.41;21.48;100528.69;106562;1264;59476;-74
2022/07/15 10:19:02;;;;;;;8.40;4.40;;;;;;;34.49;21.54;100529.02;106428;1265;59109;-74
2022/07/15 10:22:05;;;;;;;5.30;4.00;;;;;;;34.67;21.78;100532.67;106668;1260;63118;-73
2022/07/15 10:25:06;;;;;;;7.40;3.20;;;;;;;34.71;21.31;100538.25;107551;1251;62495;-77
2022/07/15 10:27:48;;;;;;;8.60;3.10;;;;;;;34.62;21.25;100529.10;107197;1250;475360;-75
2022/07/15 10:30:24;;;;;;;5.20;2.60;;;;;;;34.85;21.36;100525.90;107450;1250;64170;-77
2022/07/15 10:33:18;;;;;;;2.90;2.00;;;;;;;35.01;20.97;100520.20;107562;1251;61274;-75
2022/07/15 10:36:06;;;;;;;4.30;2.80;;;;;;;35.32;20.74;100522.84;107512;1251;61214;-75
2022/07/15 10:38:39;;;;;;;5.50;2.50;;;;;;;35.41;20.42;100521.16;107377;1251;71592;-75
2022/07/15 10:41:21;;;;;;;6.60;2.80;;;;;;;35.57;19.88;100525.27;107447;1250;73351;-76
2022/07/15 10:43:51;;;;;;;2.50;2.00;;;;;;;35.65;19.90;100521.30;107444;1251;71301;-76
2022/07/15 10:46:24;;;;;;;4.50;2.50;;;;;;;35.68;20.04;100520.85;107203;1251;74574;-76
2022/07/15 10:48:59;;;;;;;5.00;2.20;;;;;;;35.86;19.17;100515.35;107552;1250;60761;-76
2022/07/15 10:51:37;;;;;;;6.50;1.80;;;;;;;36.03;19.46;100509.83;107530;1251;60251;-76
2022/07/15 10:54:31;;;;;;;4.00;2.20;;;;;;;36.29;19.45;100505.15;107487;1251;64383;-78
2022/07/15 10:57:02;;;;;;;3.50;2.00;;;;;;;36.35;19.58;100507.38;107113;1254;61896;-76
2022/07/15 10:59:46;;;;;;;6.10;1.80;;;;;;;36.43;19.26;100509.66;107149;1250;71081;-76
2022/07/15 11:02:19;;;;;;;6.00;1.80;;;;;;;36.15;19.49;100505.15;107402;1248;77038;-78
2022/07/15 11:04:50;;;;;;;4.60;1.90;;;;;;;36.45;19.63;100502.11;107584;1248;61452;-76
2022/07/15 11:07:24;;;;;;;4.00;1.60;;;;;;;36.80;19.31;100500.54;107617;1250;57527;-76
2022/07/15 11:10:02;;;;;;;5.20;1.80;;;;;;;37.04;18.82;100497.32;107652;1248;71767;-76
2022/07/15 11:12:31;;;;;;;4.20;1.60;;;;;;;37.32;18.63;100496.89;107687;1247;72399;-75
2022/07/15 11:15:18;;;;;;;3.30;1.90;;;;;;;37.31;18.60;100502.69;107690;1247;71045;-75
2022/07/15 11:17:54;;;;;;;4.60;1.80;;;;;;;37.15;18.72;100494.93;107647;1248;63837;-75
2022/07/15 11:20:35;;;;;;;4.00;2.00;;;;;;;36.85;18.50;100491.04;107722;1247;62328;-75
2022/07/15 11:23:07;;;;;;;5.70;1.70;;;;;;;36.70;18.65;100486.55;107679;1247;57500;-75
2022/07/15 11:25:41;;;;;;;2.70;1.60;;;;;;;37.33;18.48;100486.73;107686;1247;61427;-75
2022/07/15 11:28:13;;;;;;;5.30;1.60;;;;;;;37.71;18.10;100487.43;107660;1247;62308;-74
2022/07/15 11:30:47;;;;;;;2.60;1.70;;;;;;;37.97;17.90;100492.23;107761;1247;59258;-75
2022/07/15 11:33:18;;;;;;;3.50;1.70;;;;;;;38.68;17.59;100491.30;107516;1250;63274;-75
2022/07/15 11:35:55;;;;;;;2.90;1.50;;;;;;;39.05;17.27;100481.75;107700;1247;57805;-76
2022/07/15 11:38:31;;;;;;;4.00;1.90;;;;;;;38.96;16.78;100491.66;107747;1247;62000;-76
2022/07/15 11:44:29;;;;;;;3.60;1.70;;;;;;;38.95;16.44;100482.67;108004;1248;60739;-79
2022/07/15 11:47:00;;;;;;;4.60;2.90;;;;;;;39.12;16.53;100474.64;107818;1251;60065;-75
2022/07/15 11:49:41;;;;;;;8.10;2.70;;;;;;;38.60;17.75;100486.45;108229;1247;63291;-77
2022/07/15 11:52:23;;;;;;;3.70;1.80;;;;;;;37.79;19.39;100502.30;107852;1250;59018;-74
2022/07/15 11:54:52;;;;;;;4.90;1.70;;;;;;;37.50;20.27;100507.29;107984;1248;59182;-75
2022/07/15 11:57:22;;;;;;;10.30;2.90;;;;;;;37.38;20.53;100485.20;107277;1249;72965;-76
2022/07/15 11:59:56;;;;;;;3.60;1.90;;;;;;;37.50;20.48;100496.00;107542;1248;61677;-77
2022/07/15 12:02:28;;;;;;;4.40;1.90;;;;;;;36.95;21.00;100499.98;107796;1248;61787;-76
2022/07/15 12:05:04;;;;;;;5.00;2.00;;;;;;;36.58;21.09;100504.15;107927;1247;73637;-76
2022/07/15 12:07:47;;;;;;;3.10;1.80;;;;;;;35.17;22.81;100507.25;107829;1247;61738;-74
2022/07/15 12:10:16;;;;;;;4.60;2.10;;;;;;;34.56;23.75;100506.48;107664;1248;57921;-75
2022/07/15 12:12:56;;;;;;;3.50;1.80;;;;;;;34.33;24.07;100499.86;107439;1250;62464;-76
2022/07/15 12:15:26;;;;;;;3.80;1.90;;;;;;;34.19;24.10;100496.51;107485;1247;63045;-74
2022/07/15 12:17:55;;;;;;;3.70;1.70;;;;;;;33.76;24.98;100505.48;107929;1247;69213;-77
2022/07/15 12:20:26;;;;;;;5.50;2.00;;;;;;;33.60;25.22;100506.10;108278;1247;74377;-77
2022/07/15 12:23:10;;;;;;;3.70;1.90;;;;;;;33.50;25.33;100507.39;108387;1247;61984;-76
2022/07/15 12:25:39;;;;;;;3.40;1.70;;;;;;;33.44;25.58;100511.65;108365;1247;60338;-75
2022/07/15 12:28:08;;;;;;;5.50;2.10;;;;;;;33.34;25.52;100509.13;107618;1247;73836;-74
2022/07/15 12:30:39;;;;;;;4.10;2.30;;;;;;;33.20;25.78;100508.63;107724;1247;71771;-74
2022/07/15 12:33:14;;;;;;;3.00;2.10;;;;;;;33.08;26.11;100513.24;107454;1248;72280;-77
2022/07/15 12:35:44;;;;;;;8.50;2.30;;;;;;;32.94;26.16;100515.66;108338;1247;74626;-76
2022/07/15 12:38:33;;;;;;;12.10;2.30;;;;;;;32.92;26.58;100515.88;107671;1247;61295;-75
2022/07/15 12:41:25;;;;;;;6.70;2.40;;;;;;;32.69;28.23;100524.02;107515;1248;60987;-77
2022/07/15 12:43:58;;;;;;;7.20;2.70;;;;;;;32.49;30.13;100527.71;107574;1248;73387;-74
2022/07/15 12:46:55;;;;;;;9.20;2.70;;;;;;;32.27;30.87;100537.81;107571;1247;72271;-74
2022/07/15 12:49:50;;;;;;;20.20;2.90;;;;;;;32.07;31.21;100549.37;107866;1247;60915;-77
2022/07/15 12:53:19;;;;;;;10.90;3.00;;;;;;;31.89;31.64;100553.80;106815;1257;73963;-75
2022/07/15 12:57:05;;;;;;;8.50;2.70;;;;;;;31.65;32.33;100553.98;106727;1257;58001;-83
2022/07/15 13:00:21;;;;;;;15.70;3.40;;;;;;;31.56;32.89;100557.28;106199;1263;58696;-80
2022/07/15 13:03:10;;;;;;;5.20;2.80;;;;;;;31.45;33.31;100559.73;105652;1265;72160;-82
2022/07/15 13:05:42;;;;;;;4.50;2.40;;;;;;;31.39;33.26;100563.18;105958;1266;62759;-86
2022/07/15 13:08:13;;;;;;;5.60;2.70;;;;;;;31.25;33.49;100561.27;105932;1265;60537;-79
2022/07/15 13:11:05;;;;;;;4.80;2.40;;;;;;;31.34;33.46;100572.04;106054;1264;74389;-85
2022/07/15 13:13:51;;;;;;;3.50;2.20;;;;;;;31.21;33.53;100579.11;105957;1264;62027;-80
2022/07/15 13:16:20;;;;;;;7.00;2.30;;;;;;;31.06;33.45;100579.23;105728;1264;61025;-82
2022/07/15 13:18:49;;;;;;;5.30;2.30;;;;;;;31.02;33.45;100580.20;105980;1264;62003;-81
2022/07/15 13:21:18;;;;;;;4.50;2.20;;;;;;;30.82;33.72;100587.48;106049;1264;61790;-85
2022/07/15 13:23:54;;;;;;;5.60;2.50;;;;;;;30.94;33.48;100595.91;106102;1264;68295;-83
2022/07/15 13:26:23;;;;;;;5.40;2.10;;;;;;;31.15;32.93;100595.45;106205;1263;73326;-88
2022/07/15 13:33:17;;;;;;;5.10;2.20;;;;;;;31.93;31.68;100608.92;106546;1257;59017;-84
2022/07/15 13:35:48;;;;;;;6.60;2.50;;;;;;;32.46;30.81;100609.11;106157;1262;62263;-83
2022/07/15 13:38:17;;;;;;;9.90;2.50;;;;;;;32.71;30.35;100607.80;106248;1264;61776;-81
2022/07/15 13:40:46;;;;;;;4.30;1.80;;;;;;;33.36;29.41;100617.49;106297;1263;59315;-82
2022/07/15 13:43:20;;;;;;;6.30;2.50;;;;;;;33.52;28.85;100620.02;106288;1264;63532;-86
2022/07/15 13:46:03;;;;;;;3.20;1.80;;;;;;;33.12;28.89;100621.55;106267;1264;61341;-85
2022/07/15 13:48:32;;;;;;;4.50;2.00;;;;;;;33.49;28.65;100624.13;106059;1264;59019;-84